createdAt,value
2022-11-27T00:01:44.170Z,6.20
2022-11-27T00:04:13.724Z,6.20
2022-11-27T00:06:43.188Z,6.20
2022-11-27T00:09:15.550Z,6.20
2022-11-27T00:11:47.241Z,6.20
2022-11-27T00:14:17.641Z,6.20
2022-11-27T00:16:47.440Z,6.20
2022-11-27T00:19:15.656Z,6.20
2022-11-27T00:21:44.332Z,6.20
2022-11-27T00:24:14.348Z,6.10
2022-11-27T00:26:42.971Z,6.10
2022-11-27T00:29:12.924Z,6.00
2022-11-27T00:31:42.052Z,5.90
2022-11-27T00:34:11.855Z,5.80
2022-11-27T00:36:43.936Z,5.90
2022-11-27T00:39:14.936Z,5.90
2022-11-27T00:41:43.529Z,5.90
2022-11-27T00:44:13.883Z,5.90
2022-11-27T00:46:42.767Z,5.90
2022-11-27T00:49:14.551Z,5.90
2022-11-27T00:51:43.336Z,5.90
2022-11-27T00:54:11.846Z,5.80
2022-11-27T00:56:41.355Z,5.80
2022-11-27T00:59:12.415Z,5.80
2022-11-27T01:01:43.251Z,5.80
2022-11-27T01:04:17.455Z,5.80
2022-11-27T01:06:46.311Z,5.80
2022-11-27T01:09:15.982Z,5.80
2022-11-27T01:11:44.863Z,5.80
2022-11-27T01:14:17.924Z,5.80
2022-11-27T01:16:48.551Z,5.70
2022-11-27T01:19:19.462Z,5.70
2022-11-27T01:21:48.717Z,5.70
2022-11-27T01:24:18.772Z,5.70
2022-11-27T01:26:47.620Z,5.70
2022-11-27T01:29:17.723Z,5.70
2022-11-27T01:31:47.503Z,5.70
2022-11-27T01:34:19.690Z,5.60
2022-11-27T01:36:48.182Z,5.60
2022-11-27T01:39:24.187Z,5.60
2022-11-27T01:41:53.012Z,5.60
2022-11-27T01:44:53.965Z,5.60
2022-11-27T01:47:32.270Z,5.60
2022-11-27T01:50:08.297Z,5.60
2022-11-27T01:52:41.012Z,5.50
2022-11-27T01:55:19.131Z,5.40
2022-11-27T01:57:52.894Z,5.40
2022-11-27T02:00:23.093Z,5.40
2022-11-27T02:02:51.875Z,5.40
2022-11-27T02:05:23.490Z,5.40
2022-11-27T02:07:53.738Z,5.40
2022-11-27T02:10:23.316Z,5.40
2022-11-27T02:12:58.007Z,5.50
2022-11-27T02:15:37.949Z,5.50
2022-11-27T02:18:14.278Z,5.50
2022-11-27T02:20:50.084Z,5.50
2022-11-27T02:23:53.020Z,5.50
2022-11-27T02:26:57.082Z,5.40
2022-11-27T02:29:30.010Z,5.40
2022-11-27T02:32:04.444Z,5.40
2022-11-27T02:34:37.823Z,5.40
2022-11-27T02:37:20.349Z,5.30
2022-11-27T02:40:06.257Z,5.30
2022-11-27T02:42:37.892Z,5.30
2022-11-27T02:45:13.105Z,5.30
2022-11-27T02:47:44.053Z,5.30
2022-11-27T02:50:20.177Z,5.30
2022-11-27T02:52:52.166Z,5.30
2022-11-27T02:55:28.473Z,5.30
2022-11-27T02:58:01.312Z,5.40
2022-11-27T03:00:32.596Z,5.30
2022-11-27T03:03:04.918Z,5.40
2022-11-27T03:05:39.163Z,5.30
2022-11-27T03:08:11.834Z,5.30
2022-11-27T03:10:47.899Z,5.30
2022-11-27T03:13:17.918Z,5.30
2022-11-27T03:15:59.902Z,5.40
2022-11-27T03:18:38.461Z,5.40
2022-11-27T03:21:15.118Z,5.40
2022-11-27T03:23:44.046Z,5.30
2022-11-27T03:26:13.826Z,5.30
2022-11-27T03:28:44.328Z,5.30
2022-11-27T03:31:15.004Z,5.40
2022-11-27T03:33:43.382Z,5.40
2022-11-27T03:36:15.493Z,5.40
2022-11-27T03:38:45.689Z,5.40
2022-11-27T03:41:22.810Z,5.40
2022-11-27T03:44:04.442Z,5.40
2022-11-27T03:46:48.237Z,5.40
2022-11-27T03:49:25.913Z,5.50
2022-11-27T03:51:59.945Z,5.50
2022-11-27T03:54:44.418Z,5.50
2022-11-27T03:57:23.002Z,5.40
2022-11-27T03:59:54.009Z,5.40
2022-11-27T04:02:33.168Z,5.50
2022-11-27T04:05:02.030Z,5.50
2022-11-27T04:07:30.406Z,5.40
2022-11-27T04:09:58.861Z,5.30
2022-11-27T04:12:27.428Z,5.30
2022-11-27T04:14:55.854Z,5.30
2022-11-27T04:17:24.899Z,5.30
2022-11-27T04:19:55.940Z,5.30
2022-11-27T04:22:24.494Z,5.40
2022-11-27T04:24:53.430Z,5.40
2022-11-27T04:27:22.105Z,5.40
2022-11-27T04:29:51.221Z,5.30
2022-11-27T04:32:19.786Z,5.40
2022-11-27T04:34:48.505Z,5.40
2022-11-27T04:37:21.563Z,5.40
2022-11-27T04:39:51.010Z,5.40
2022-11-27T04:42:21.633Z,5.40
2022-11-27T04:44:51.379Z,5.30
2022-11-27T04:47:21.588Z,5.30
2022-11-27T04:49:52.058Z,5.40
2022-11-27T04:52:21.646Z,5.50
2022-11-27T04:54:52.295Z,5.50
2022-11-27T04:57:23.338Z,5.40
2022-11-27T04:59:52.047Z,5.40
2022-11-27T05:02:22.186Z,5.40
2022-11-27T05:04:51.622Z,5.40
2022-11-27T05:07:21.548Z,5.40
2022-11-27T05:09:50.420Z,5.40
2022-11-27T05:12:19.791Z,5.30
2022-11-27T05:14:54.002Z,5.30
2022-11-27T05:17:22.431Z,5.40
2022-11-27T05:19:55.499Z,5.40
2022-11-27T05:22:27.767Z,5.30
2022-11-27T05:24:56.097Z,5.30
2022-11-27T05:27:25.579Z,5.30
2022-11-27T05:29:53.877Z,5.30
2022-11-27T05:32:24.352Z,5.20
2022-11-27T05:34:52.851Z,5.20
2022-11-27T05:37:21.918Z,5.20
2022-11-27T05:39:54.397Z,5.20
2022-11-27T05:42:23.226Z,5.30
2022-11-27T05:44:57.817Z,5.20
2022-11-27T05:47:26.666Z,5.10
2022-11-27T05:49:55.320Z,4.90
2022-11-27T05:52:23.428Z,4.90
2022-11-27T05:54:58.825Z,4.90
2022-11-27T05:57:28.300Z,4.80
2022-11-27T05:59:58.114Z,4.70
2022-11-27T06:02:29.534Z,4.70
2022-11-27T06:04:59.502Z,4.60
2022-11-27T06:07:29.414Z,4.50
2022-11-27T06:10:00.271Z,4.50
2022-11-27T06:12:28.944Z,4.50
2022-11-27T06:15:00.258Z,4.40
2022-11-27T06:17:28.906Z,4.40
2022-11-27T06:20:00.091Z,4.40
2022-11-27T06:22:32.168Z,4.40
2022-11-27T06:25:02.411Z,4.40
2022-11-27T06:27:35.089Z,4.40
2022-11-27T06:30:04.517Z,4.40
2022-11-27T06:32:34.215Z,4.40
2022-11-27T06:35:03.696Z,4.50
2022-11-27T06:37:37.801Z,4.50
2022-11-27T06:40:09.998Z,4.60
2022-11-27T06:42:42.162Z,4.70
2022-11-27T06:45:11.325Z,4.70
2022-11-27T06:47:39.606Z,4.70
2022-11-27T06:50:12.244Z,4.70
2022-11-27T06:52:41.297Z,4.70
2022-11-27T06:55:11.848Z,4.70
2022-11-27T06:57:41.723Z,4.70
2022-11-27T07:00:11.077Z,4.80
2022-11-27T07:02:39.766Z,4.80
2022-11-27T07:05:08.878Z,4.80
2022-11-27T07:07:41.087Z,4.70
2022-11-27T07:10:15.328Z,4.70
2022-11-27T07:12:44.103Z,4.80
2022-11-27T07:15:14.287Z,4.70
2022-11-27T07:17:45.015Z,4.80
2022-11-27T07:20:14.957Z,4.80
2022-11-27T07:22:43.724Z,4.70
2022-11-27T07:25:13.946Z,4.80
2022-11-27T07:27:43.912Z,4.80
2022-11-27T07:30:13.782Z,4.70
2022-11-27T07:32:42.881Z,4.80
2022-11-27T07:35:11.765Z,4.70
2022-11-27T07:37:40.670Z,4.70
2022-11-27T07:40:11.201Z,4.80
2022-11-27T07:42:41.419Z,4.80
2022-11-27T07:45:11.368Z,4.80
2022-11-27T07:47:42.255Z,4.80
2022-11-27T07:50:12.330Z,4.80
2022-11-27T07:52:42.380Z,4.80
2022-11-27T07:55:12.107Z,4.90
2022-11-27T07:57:42.457Z,4.90
2022-11-27T08:00:12.881Z,5.00
2022-11-27T08:02:41.461Z,5.00
2022-11-27T08:05:13.262Z,4.90
2022-11-27T08:07:42.087Z,5.00
2022-11-27T08:10:10.690Z,5.10
2022-11-27T08:12:39.278Z,5.10
2022-11-27T08:15:14.057Z,5.10
2022-11-27T08:17:42.377Z,5.10
2022-11-27T08:20:12.665Z,5.10
2022-11-27T08:22:41.470Z,5.20
2022-11-27T08:25:11.171Z,5.20
2022-11-27T08:27:40.654Z,5.30
2022-11-27T08:30:12.633Z,5.30
2022-11-27T08:32:43.173Z,5.40
2022-11-27T08:35:12.725Z,5.40
2022-11-27T08:37:41.475Z,5.40
2022-11-27T08:40:13.944Z,5.50
2022-11-27T08:42:42.674Z,5.50
2022-11-27T08:45:13.224Z,5.50
2022-11-27T08:47:43.809Z,5.50
2022-11-27T08:50:12.280Z,5.60
2022-11-27T08:52:40.593Z,5.60
2022-11-27T08:55:09.866Z,5.70
2022-11-27T08:57:38.739Z,5.70
2022-11-27T09:00:10.978Z,5.80
2022-11-27T09:02:44.350Z,5.70
2022-11-27T09:05:13.175Z,5.80
2022-11-27T09:07:42.118Z,5.70
2022-11-27T09:10:12.047Z,5.80
2022-11-27T09:12:43.523Z,5.80
2022-11-27T09:15:12.949Z,6.00
2022-11-27T09:17:44.079Z,6.00
2022-11-27T09:20:14.329Z,6.00
2022-11-27T09:22:43.013Z,6.00
2022-11-27T09:25:11.653Z,6.20
2022-11-27T09:27:40.469Z,6.20
2022-11-27T09:30:10.199Z,6.20
2022-11-27T09:32:38.838Z,6.10
2022-11-27T09:35:09.815Z,6.20
2022-11-27T09:37:38.775Z,6.30
2022-11-27T09:40:09.238Z,6.30
2022-11-27T09:42:44.689Z,6.40
2022-11-27T09:45:17.275Z,6.50
2022-11-27T09:47:51.952Z,6.60
2022-11-27T09:50:25.907Z,6.50
2022-11-27T09:52:58.225Z,6.60
2022-11-27T09:55:35.345Z,6.60
2022-11-27T09:58:08.429Z,6.70
2022-11-27T10:00:37.350Z,6.70
2022-11-27T10:03:09.821Z,6.80
2022-11-27T10:05:49.163Z,6.80
2022-11-27T10:08:33.152Z,6.80
2022-11-27T10:11:15.870Z,6.90
2022-11-27T10:14:01.097Z,6.90
2022-11-27T10:16:42.890Z,6.90
2022-11-27T10:19:27.724Z,6.80
2022-11-27T10:22:01.957Z,6.90
2022-11-27T10:24:42.442Z,7.00
2022-11-27T10:27:20.810Z,7.00
2022-11-27T10:29:53.836Z,7.00
2022-11-27T10:35:18.372Z,6.90
2022-11-27T10:37:54.200Z,7.00
2022-11-27T10:40:25.986Z,7.00
2022-11-27T10:43:04.813Z,7.00
2022-11-27T10:45:44.115Z,7.00
2022-11-27T10:48:14.163Z,6.90
2022-11-27T10:50:43.210Z,6.90
2022-11-27T10:53:20.789Z,7.00
2022-11-27T10:56:09.095Z,7.10
2022-11-27T10:58:43.369Z,7.30
2022-11-27T11:01:14.553Z,7.40
2022-11-27T11:03:43.579Z,7.40
2022-11-27T11:06:21.381Z,7.40
2022-11-27T11:09:05.639Z,7.40
2022-11-27T11:11:34.427Z,7.40
2022-11-27T11:14:05.294Z,7.40
2022-11-27T11:16:44.679Z,7.30
2022-11-27T11:19:24.902Z,7.30
2022-11-27T11:21:54.035Z,7.30
2022-11-27T11:24:29.146Z,7.40
2022-11-27T11:27:01.138Z,7.40
2022-11-27T11:29:33.856Z,7.50
2022-11-27T11:32:12.276Z,7.50
2022-11-27T11:34:46.337Z,7.40
2022-11-27T11:37:30.152Z,7.50
2022-11-27T11:40:03.635Z,7.30
2022-11-27T11:42:34.899Z,7.40
2022-11-27T11:45:06.407Z,7.40
2022-11-27T11:47:36.967Z,7.40
2022-11-27T11:50:06.721Z,7.50
2022-11-27T11:52:48.091Z,7.50
2022-11-27T11:55:26.265Z,7.60
2022-11-27T11:58:36.939Z,7.60
2022-11-27T12:01:27.003Z,7.60
2022-11-27T12:04:16.220Z,7.70
2022-11-27T12:06:56.750Z,7.80
2022-11-27T12:09:33.439Z,7.80
2022-11-27T12:12:14.886Z,7.80
2022-11-27T12:14:48.530Z,7.80
2022-11-27T12:17:39.995Z,7.80
2022-11-27T12:20:19.734Z,7.80
2022-11-27T12:23:30.031Z,7.70
2022-11-27T12:26:16.931Z,7.60
2022-11-27T12:29:24.340Z,7.60
2022-11-27T12:32:09.038Z,7.70
2022-11-27T12:34:52.139Z,7.70
2022-11-27T12:37:43.678Z,7.80
2022-11-27T12:40:26.397Z,7.80
2022-11-27T12:43:07.267Z,7.80
2022-11-27T12:45:42.108Z,7.90
2022-11-27T12:48:18.140Z,7.90
2022-11-27T12:50:52.587Z,8.00
2022-11-27T12:53:27.369Z,7.90
2022-11-27T12:56:04.453Z,7.90
2022-11-27T12:58:40.618Z,8.00
2022-11-27T13:01:15.836Z,8.00
2022-11-27T13:03:58.081Z,8.10
2022-11-27T13:06:32.449Z,8.10
2022-11-27T13:09:05.978Z,8.10
2022-11-27T13:11:38.067Z,8.20
2022-11-27T13:14:12.482Z,8.20
2022-11-27T13:16:47.369Z,8.00
2022-11-27T13:19:24.187Z,8.00
2022-11-27T13:21:58.279Z,8.10
2022-11-27T13:24:27.895Z,8.10
2022-11-27T13:27:04.724Z,8.10
2022-11-27T13:29:38.978Z,8.10
2022-11-27T13:32:11.423Z,8.10
2022-11-27T13:34:46.955Z,8.10
2022-11-27T13:37:30.191Z,8.10
2022-11-27T13:40:05.795Z,8.10
2022-11-27T13:42:36.985Z,8.10
2022-11-27T13:45:11.189Z,8.10
2022-11-27T13:47:44.681Z,8.10
2022-11-27T13:50:18.234Z,8.10
2022-11-27T13:52:59.931Z,8.20
2022-11-27T13:55:31.300Z,8.30
2022-11-27T13:58:02.817Z,8.20
2022-11-27T14:00:38.578Z,8.30
2022-11-27T14:03:12.486Z,8.20
2022-11-27T14:05:44.329Z,8.10
2022-11-27T14:08:22.811Z,8.00
2022-11-27T14:10:55.723Z,7.90
2022-11-27T14:13:38.803Z,7.90
2022-11-27T14:16:20.834Z,7.80
2022-11-27T14:18:54.158Z,7.80
2022-11-27T14:21:27.406Z,7.70
2022-11-27T14:23:58.397Z,7.70
2022-11-27T14:26:27.638Z,7.70
2022-11-27T14:28:57.690Z,7.70
2022-11-27T14:31:33.983Z,7.70
2022-11-27T14:34:16.041Z,7.70
2022-11-27T14:36:46.521Z,7.70
2022-11-27T14:39:23.625Z,7.60
2022-11-27T14:42:00.546Z,7.60
2022-11-27T14:44:33.731Z,7.60
2022-11-27T14:47:05.079Z,7.60
2022-11-27T14:49:35.818Z,7.60
2022-11-27T14:52:10.811Z,7.60
2022-11-27T14:54:42.402Z,7.50
2022-11-27T14:57:19.307Z,7.50
2022-11-27T14:59:47.775Z,7.50
2022-11-27T15:02:26.050Z,7.50
2022-11-27T15:05:06.805Z,7.50
2022-11-27T15:07:45.370Z,7.40
2022-11-27T15:10:29.276Z,7.40
2022-11-27T15:12:59.074Z,7.30
2022-11-27T15:15:29.641Z,7.30
2022-11-27T15:18:01.191Z,7.30
2022-11-27T15:20:37.861Z,7.20
2022-11-27T15:23:13.834Z,7.30
2022-11-27T15:25:48.592Z,7.30
2022-11-27T15:28:33.778Z,7.40
2022-11-27T15:31:05.029Z,7.30
2022-11-27T15:33:36.378Z,7.30
2022-11-27T15:36:22.128Z,7.30
2022-11-27T15:38:52.878Z,7.30
2022-11-27T15:41:24.117Z,7.20
2022-11-27T15:43:54.353Z,7.20
2022-11-27T15:46:27.058Z,7.20
2022-11-27T15:48:55.917Z,7.10
2022-11-27T15:51:26.205Z,7.10
2022-11-27T15:53:54.718Z,7.10
2022-11-27T15:56:23.473Z,7.10
2022-11-27T15:58:53.178Z,7.10
2022-11-27T16:01:22.025Z,7.00
2022-11-27T16:03:50.774Z,6.90
2022-11-27T16:06:21.065Z,6.90
2022-11-27T16:08:55.491Z,6.80
2022-11-27T16:11:24.862Z,6.80
2022-11-27T16:13:55.552Z,6.80
2022-11-27T16:16:25.035Z,6.80
2022-11-27T16:18:53.707Z,6.80
2022-11-27T16:21:29.268Z,6.80
2022-11-27T16:24:04.323Z,6.80
2022-11-27T16:26:33.293Z,6.70
2022-11-27T16:29:02.195Z,6.70
2022-11-27T16:31:31.056Z,6.60
2022-11-27T16:34:02.083Z,6.70
2022-11-27T16:36:30.825Z,6.70
2022-11-27T16:39:05.786Z,6.60
2022-11-27T16:41:34.590Z,6.60
2022-11-27T16:44:12.094Z,6.50
2022-11-27T16:46:41.308Z,6.60
2022-11-27T16:49:11.318Z,6.60
2022-11-27T16:51:44.557Z,6.60
2022-11-27T16:54:16.185Z,6.50
2022-11-27T16:56:45.311Z,6.50
2022-11-27T16:59:18.999Z,6.50
2022-11-27T17:01:48.251Z,6.40
2022-11-27T17:04:19.538Z,6.40
2022-11-27T17:06:49.350Z,6.40
2022-11-27T17:09:20.476Z,6.30
2022-11-27T17:11:50.780Z,6.20
2022-11-27T17:14:21.063Z,6.20
2022-11-27T17:16:51.940Z,6.10
2022-11-27T17:19:24.754Z,6.10
2022-11-27T17:21:53.920Z,6.00
2022-11-27T17:24:26.087Z,6.00
2022-11-27T17:26:56.542Z,6.00
2022-11-27T17:29:34.278Z,5.90
2022-11-27T17:32:07.398Z,6.00
2022-11-27T17:34:36.131Z,6.00
2022-11-27T17:37:06.518Z,6.00
2022-11-27T17:39:37.005Z,6.00
2022-11-27T17:42:10.096Z,6.00
2022-11-27T17:44:43.453Z,6.00
2022-11-27T17:47:13.124Z,6.00
2022-11-27T17:49:42.331Z,6.00
2022-11-27T17:52:11.519Z,6.00
2022-11-27T17:54:43.444Z,6.00
2022-11-27T17:57:12.685Z,6.00
2022-11-27T17:59:41.285Z,6.10
2022-11-27T18:02:12.577Z,6.00
2022-11-27T18:04:41.692Z,6.10
2022-11-27T18:07:11.922Z,6.10
2022-11-27T18:09:42.701Z,6.00
2022-11-27T18:12:12.422Z,6.10
2022-11-27T18:14:43.381Z,6.00
2022-11-27T18:17:17.260Z,6.00
2022-11-27T18:19:45.930Z,6.00
2022-11-27T18:22:14.706Z,5.90
2022-11-27T18:24:50.354Z,6.00
2022-11-27T18:27:19.587Z,5.90
2022-11-27T18:29:51.130Z,5.90
2022-11-27T18:32:20.863Z,5.90
2022-11-27T18:34:49.624Z,6.00
2022-11-27T18:37:20.684Z,6.00
2022-11-27T18:39:52.671Z,6.00
2022-11-27T18:42:23.050Z,6.00
2022-11-27T18:44:51.889Z,6.00
2022-11-27T18:47:26.955Z,6.00
2022-11-27T18:49:56.676Z,6.00
2022-11-27T18:52:26.690Z,6.00
2022-11-27T18:54:57.720Z,6.00
2022-11-27T18:57:27.391Z,6.10
2022-11-27T18:59:56.629Z,6.00
2022-11-27T19:02:24.983Z,6.10
2022-11-27T19:04:54.218Z,6.10
2022-11-27T19:07:22.837Z,6.20
2022-11-27T19:09:51.745Z,6.20
2022-11-27T19:12:21.722Z,6.20
2022-11-27T19:14:50.206Z,6.20
2022-11-27T19:17:21.734Z,6.20
2022-11-27T19:20:04.214Z,6.20
2022-11-27T19:22:33.466Z,6.20
2022-11-27T19:25:02.350Z,6.10
2022-11-27T19:27:34.981Z,6.10
2022-11-27T19:30:05.676Z,6.10
2022-11-27T19:32:35.980Z,6.00
2022-11-27T19:35:07.281Z,6.00
2022-11-27T19:37:37.230Z,5.90
2022-11-27T19:40:07.330Z,5.70
2022-11-27T19:42:40.243Z,5.60
2022-11-27T19:45:11.049Z,5.50
2022-11-27T19:47:40.269Z,5.50
2022-11-27T19:50:09.541Z,5.40
2022-11-27T19:52:38.492Z,5.40
2022-11-27T19:55:07.777Z,5.40
2022-11-27T19:57:38.100Z,5.40
2022-11-27T20:00:10.658Z,5.40
2022-11-27T20:02:42.626Z,5.40
2022-11-27T20:05:15.409Z,5.50
2022-11-27T20:07:46.594Z,5.50
2022-11-27T20:10:18.966Z,5.50
2022-11-27T20:12:47.613Z,5.50
2022-11-27T20:15:19.551Z,5.50
2022-11-27T20:17:51.046Z,5.50
2022-11-27T20:20:21.576Z,5.50
2022-11-27T20:22:51.260Z,5.60
2022-11-27T20:25:22.195Z,5.60
2022-11-27T20:27:55.042Z,5.60
2022-11-27T20:30:26.264Z,5.60
2022-11-27T20:33:01.909Z,5.50
2022-11-27T20:35:34.304Z,5.50
2022-11-27T20:38:02.833Z,5.50
2022-11-27T20:40:33.797Z,5.50
2022-11-27T20:43:03.794Z,5.50
2022-11-27T20:45:37.612Z,5.50
2022-11-27T20:48:09.405Z,5.50
2022-11-27T20:50:40.025Z,5.50
2022-11-27T20:53:09.874Z,5.50
2022-11-27T20:55:38.820Z,5.60
2022-11-27T20:58:07.746Z,5.60
2022-11-27T21:00:40.754Z,5.60
2022-11-27T21:03:09.946Z,5.70
2022-11-27T21:05:43.210Z,5.70
2022-11-27T21:08:12.227Z,5.70
2022-11-27T21:10:42.895Z,5.80
2022-11-27T21:13:11.760Z,5.80
2022-11-27T21:15:49.833Z,5.80
2022-11-27T21:18:19.766Z,5.80
2022-11-27T21:20:48.410Z,5.90
2022-11-27T21:23:19.902Z,5.80
2022-11-27T21:25:49.997Z,5.80
2022-11-27T21:28:19.273Z,5.70
2022-11-27T21:30:50.425Z,5.70
2022-11-27T21:33:19.197Z,5.70
2022-11-27T21:35:49.784Z,5.70
2022-11-27T21:38:20.415Z,5.70
2022-11-27T21:40:49.433Z,5.60
2022-11-27T21:43:18.681Z,5.60
2022-11-27T21:45:47.723Z,5.60
2022-11-27T21:48:18.634Z,5.60
2022-11-27T21:50:47.431Z,5.60
2022-11-27T21:53:16.246Z,5.60
2022-11-27T21:55:45.870Z,5.70
2022-11-27T21:58:15.131Z,5.70
2022-11-27T22:00:44.496Z,5.70
2022-11-27T22:03:13.025Z,5.60
2022-11-27T22:05:43.093Z,5.60
2022-11-27T22:08:11.624Z,5.60
2022-11-27T22:10:41.724Z,5.60
2022-11-27T22:13:10.160Z,5.50
2022-11-27T22:15:39.516Z,5.50
2022-11-27T22:18:08.383Z,5.50
2022-11-27T22:20:37.214Z,5.50
2022-11-27T22:23:07.448Z,5.50
2022-11-27T22:25:35.940Z,5.50
2022-11-27T22:28:05.184Z,5.50
2022-11-27T22:30:35.558Z,5.50
2022-11-27T22:33:04.659Z,5.50
2022-11-27T22:35:33.889Z,5.50
2022-11-27T22:38:03.201Z,5.60
2022-11-27T22:40:33.206Z,5.60
2022-11-27T22:43:01.939Z,5.60
2022-11-27T22:45:31.421Z,5.60
2022-11-27T22:48:01.192Z,5.70
2022-11-27T22:50:31.895Z,5.70
2022-11-27T22:53:00.303Z,5.70
2022-11-27T22:55:29.842Z,5.70
2022-11-27T22:58:00.647Z,5.70
2022-11-27T23:00:29.332Z,5.80
2022-11-27T23:03:00.200Z,5.80
2022-11-27T23:05:30.863Z,5.80
2022-11-27T23:08:00.067Z,5.90
2022-11-27T23:10:29.191Z,5.90
2022-11-27T23:13:01.466Z,5.90
2022-11-27T23:15:32.622Z,5.90
2022-11-27T23:18:02.586Z,6.00
2022-11-27T23:20:31.426Z,6.00
2022-11-27T23:23:00.739Z,6.10
2022-11-27T23:25:35.607Z,6.10
2022-11-27T23:28:13.359Z,6.20
2022-11-27T23:30:43.080Z,6.20
2022-11-27T23:33:11.392Z,6.30
2022-11-27T23:35:40.221Z,6.30
2022-11-27T23:38:09.312Z,6.40
2022-11-27T23:40:39.439Z,6.40
2022-11-27T23:43:10.072Z,6.40
2022-11-27T23:45:40.324Z,6.50
2022-11-27T23:48:08.879Z,6.50
2022-11-27T23:50:39.723Z,6.40
2022-11-27T23:53:08.396Z,6.50
2022-11-27T23:55:37.711Z,6.50
2022-11-27T23:58:06.054Z,6.50
